Time;durP1;ratioP1;P1;durP2;ratioP2;P2;SDS_P1;SDS_P2;PMS_P1;PMS_P2;Temp;Humidity;BMP_temperature;BMP_pressure;BME280_temperature;BME280_humidity;BME280_pressure;Samples;Min_cycle;Max_cycle;Signal;HPM_P1;HPM_P2
2023/08/19 00:06:30;;;;;;;;;20.25;18.00;;;;;;;;6489536;39;9029;-59
2023/08/19 00:12:33;;;;;;;;;21.25;19.25;;;;;;;;6489220;39;8907;-59
2023/08/19 00:18:35;;;;;;;;;19.75;19.75;;;;;;;;6489544;39;8917;-59
2023/08/19 00:24:38;;;;;;;;;18.75;17.75;;;;;;;;6488562;39;8879;-59
2023/08/19 00:30:40;;;;;;;;;21.00;18.50;;;;;;;;6489465;31;8915;-58
2023/08/19 00:36:44;;;;;;;;;17.25;16.25;;;;;;;;6488780;31;8871;-58
2023/08/19 00:42:48;;;;;;;;;20.25;19.75;;;;;;;;6488150;46;8871;-58
2023/08/19 00:48:51;;;;;;;;;17.25;15.00;;;;;;;;6488606;31;8851;-58
2023/08/19 00:54:54;;;;;;;;;16.50;16.00;;;;;;;;6488840;39;8910;-59
2023/08/19 01:00:57;;;;;;;;;22.50;19.50;;;;;;;;6489268;39;8993;-59
2023/08/19 01:07:17;;;;;;;;;17.25;16.75;;;;;;;;6488703;39;8831;-59
2023/08/19 01:13:29;;;;;;;;;16.75;15.00;;;;;;;;6489494;31;8982;-57
2023/08/19 01:19:36;;;;;;;;;16.25;16.25;;;;;;;;6488819;46;8970;-58
2023/08/19 01:25:41;;;;;;;;;15.75;15.75;;;;;;;;6489242;39;8875;-59
2023/08/19 01:31:45;;;;;;;;;16.75;16.75;;;;;;;;6488942;46;8851;-59
2023/08/19 01:37:59;;;;;;;;;17.75;17.25;;;;;;;;6487406;46;8954;-58
2023/08/19 01:44:03;;;;;;;;;16.50;16.50;;;;;;;;6488934;39;8934;-58
2023/08/19 01:50:06;;;;;;;;;17.50;16.50;;;;;;;;6489665;39;9510;-57
2023/08/19 01:56:10;;;;;;;;;17.25;16.00;;;;;;;;6488012;46;8977;-58
2023/08/19 02:02:13;;;;;;;;;20.00;18.75;;;;;;;;6488356;39;8946;-58
2023/08/19 02:08:16;;;;;;;;;18.00;17.50;;;;;;;;6487895;39;8902;-59
2023/08/19 02:14:18;;;;;;;;;17.25;15.75;;;;;;;;6489147;39;8930;-58
2023/08/19 02:20:20;;;;;;;;;17.25;16.75;;;;;;;;6487631;47;8914;-59
2023/08/19 02:26:24;;;;;;;;;17.50;16.75;;;;;;;;6487957;39;10022;-61
2023/08/19 02:32:27;;;;;;;;;20.50;18.25;;;;;;;;6487419;39;9001;-58
2023/08/19 02:38:31;;;;;;;;;17.00;17.00;;;;;;;;6487323;39;9759;-58
2023/08/19 02:44:35;;;;;;;;;20.50;19.75;;;;;;;;6487973;31;9010;-59
2023/08/19 02:50:40;;;;;;;;;16.50;16.50;;;;;;;;6487596;31;8873;-58
2023/08/19 02:56:42;;;;;;;;;20.00;14.25;;;;;;;;6487901;39;9118;-59
2023/08/19 03:02:46;;;;;;;;;18.75;18.25;;;;;;;;6488200;31;8875;-59
2023/08/19 03:08:50;;;;;;;;;20.25;18.75;;;;;;;;6487846;47;8875;-58
2023/08/19 03:14:52;;;;;;;;;22.75;19.25;;;;;;;;6487409;39;8915;-59
2023/08/19 03:20:57;;;;;;;;;23.50;22.00;;;;;;;;6487391;39;8859;-58
2023/08/19 03:27:00;;;;;;;;;21.00;21.00;;;;;;;;6487047;39;8878;-60
2023/08/19 03:33:03;;;;;;;;;18.67;18.67;;;;;;;;6489863;39;9328;-58
2023/08/19 03:39:07;;;;;;;;;24.50;23.00;;;;;;;;6489190;46;8859;-57
2023/08/19 03:45:11;;;;;;;;;27.75;25.25;;;;;;;;6490239;46;8879;-59
2023/08/19 03:51:14;;;;;;;;;22.67;22.67;;;;;;;;6489220;46;8879;-59
2023/08/19 03:57:17;;;;;;;;;23.00;23.00;;;;;;;;6489825;39;8906;-58
2023/08/19 04:03:19;;;;;;;;;25.00;23.25;;;;;;;;6489828;31;8898;-60
2023/08/19 04:09:23;;;;;;;;;25.00;23.00;;;;;;;;6489486;39;8902;-57
2023/08/19 04:15:25;;;;;;;;;24.00;23.00;;;;;;;;6489373;46;8919;-58
